sensor_id;sensor_type;location;lat;lon;timestamp;temperature;humidity
4293;DHT22;2160;51.172;6.808;2023-03-14T05:01:23;12.00;99.90
4293;DHT22;2160;51.172;6.808;2023-03-14T05:04:17;12.00;99.90
4293;DHT22;2160;51.172;6.808;2023-03-14T05:06:55;12.10;99.90
4293;DHT22;2160;51.172;6.808;2023-03-14T05:09:41;12.20;99.90
4293;DHT22;2160;51.172;6.808;2023-03-14T05:12:34;12.10;99.90
4293;DHT22;2160;51.172;6.808;2023-03-14T05:15:22;12.20;99.90
4293;DHT22;2160;51.172;6.808;2023-03-14T05:18:13;12.10;99.90
4293;DHT22;2160;51.172;6.808;2023-03-14T05:21:06;12.00;99.90
4293;DHT22;2160;51.172;6.808;2023-03-14T05:24:05;12.00;99.90
4293;DHT22;2160;51.172;6.808;2023-03-14T05:26:49;12.10;99.90
4293;DHT22;2160;51.172;6.808;2023-03-14T05:29:29;12.10;99.90
4293;DHT22;2160;51.172;6.808;2023-03-14T05:32:25;12.20;99.90
4293;DHT22;2160;51.172;6.808;2023-03-14T05:35:05;12.20;99.90
4293;DHT22;2160;51.172;6.808;2023-03-14T05:37:55;12.10;99.90
4293;DHT22;2160;51.172;6.808;2023-03-14T05:40:52;12.10;99.90
4293;DHT22;2160;51.172;6.808;2023-03-14T05:43:39;12.10;99.90
4293;DHT22;2160;51.172;6.808;2023-03-14T05:46:41;12.10;99.90
4293;DHT22;2160;51.172;6.808;2023-03-14T05:49:35;12.00;99.90
4293;DHT22;2160;51.172;6.808;2023-03-14T05:52:23;11.90;99.90
4293;DHT22;2160;51.172;6.808;2023-03-14T05:55:05;12.10;99.90
4293;DHT22;2160;51.172;6.808;2023-03-14T05:57:46;12.00;99.90
4293;DHT22;2160;51.172;6.808;2023-03-14T06:00:22;11.90;99.90
4293;DHT22;2160;51.172;6.808;2023-03-14T06:03:15;11.90;99.90
4293;DHT22;2160;51.172;6.808;2023-03-14T06:05:45;12.00;99.90
4293;DHT22;2160;51.172;6.808;2023-03-14T06:08:12;12.00;99.90
4293;DHT22;2160;51.172;6.808;2023-03-14T06:10:40;12.00;99.90
4293;DHT22;2160;51.172;6.808;2023-03-14T06:13:07;12.10;99.90
4293;DHT22;2160;51.172;6.808;2023-03-14T06:15:34;12.10;99.90
4293;DHT22;2160;51.172;6.808;2023-03-14T06:18:03;12.20;99.90
4293;DHT22;2160;51.172;6.808;2023-03-14T06:20:32;12.30;99.90
4293;DHT22;2160;51.172;6.808;2023-03-14T06:23:00;12.30;99.90
4293;DHT22;2160;51.172;6.808;2023-03-14T06:25:29;12.30;99.90
4293;DHT22;2160;51.172;6.808;2023-03-14T06:27:57;12.40;99.90
4293;DHT22;2160;51.172;6.808;2023-03-14T06:30:24;12.30;99.90
4293;DHT22;2160;51.172;6.808;2023-03-14T06:32:53;12.30;99.90
4293;DHT22;2160;51.172;6.808;2023-03-14T06:35:21;12.30;99.90
4293;DHT22;2160;51.172;6.808;2023-03-14T06:37:50;12.40;99.90
4293;DHT22;2160;51.172;6.808;2023-03-14T06:40:18;12.50;99.90
4293;DHT22;2160;51.172;6.808;2023-03-14T06:42:59;12.20;99.90
4293;DHT22;2160;51.172;6.808;2023-03-14T06:45:29;12.10;99.90
4293;DHT22;2160;51.172;6.808;2023-03-14T06:47:58;12.20;99.90
4293;DHT22;2160;51.172;6.808;2023-03-14T06:50:34;12.20;99.90
4293;DHT22;2160;51.172;6.808;2023-03-14T06:53:06;12.30;99.90
4293;DHT22;2160;51.172;6.808;2023-03-14T06:55:36;12.40;99.90
4293;DHT22;2160;51.172;6.808;2023-03-14T06:58:06;12.40;99.90
4293;DHT22;2160;51.172;6.808;2023-03-14T07:00:38;12.50;99.90
4293;DHT22;2160;51.172;6.808;2023-03-14T07:03:06;12.60;99.90
4293;DHT22;2160;51.172;6.808;2023-03-14T07:05:38;12.60;99.90
4293;DHT22;2160;51.172;6.808;2023-03-14T07:08:08;12.60;99.90
4293;DHT22;2160;51.172;6.808;2023-03-14T07:10:35;12.70;99.90
4293;DHT22;2160;51.172;6.808;2023-03-14T07:13:03;12.60;99.90
4293;DHT22;2160;51.172;6.808;2023-03-14T07:15:34;12.80;99.90
4293;DHT22;2160;51.172;6.808;2023-03-14T07:18:06;12.80;99.90
4293;DHT22;2160;51.172;6.808;2023-03-14T07:20:33;12.90;99.90
4293;DHT22;2160;51.172;6.808;2023-03-14T07:23:01;12.80;99.90
4293;DHT22;2160;51.172;6.808;2023-03-14T07:25:38;12.80;99.90
4293;DHT22;2160;51.172;6.808;2023-03-14T07:28:05;12.70;99.90
4293;DHT22;2160;51.172;6.808;2023-03-14T07:30:33;12.70;99.90
4293;DHT22;2160;51.172;6.808;2023-03-14T07:33:03;12.80;99.90
4293;DHT22;2160;51.172;6.808;2023-03-14T07:35:30;12.70;99.90
4293;DHT22;2160;51.172;6.808;2023-03-14T07:38:01;12.70;99.90
4293;DHT22;2160;51.172;6.808;2023-03-14T07:40:35;13.00;99.90
4293;DHT22;2160;51.172;6.808;2023-03-14T07:43:06;12.90;99.90
4293;DHT22;2160;51.172;6.808;2023-03-14T07:45:41;13.00;99.90
4293;DHT22;2160;51.172;6.808;2023-03-14T07:48:08;13.20;99.90
4293;DHT22;2160;51.172;6.808;2023-03-14T07:50:35;13.00;99.90
4293;DHT22;2160;51.172;6.808;2023-03-14T07:53:02;12.80;99.90
4293;DHT22;2160;51.172;6.808;2023-03-14T07:55:29;12.90;99.90
4293;DHT22;2160;51.172;6.808;2023-03-14T07:57:56;12.90;99.90
4293;DHT22;2160;51.172;6.808;2023-03-14T08:00:24;12.90;99.90
4293;DHT22;2160;51.172;6.808;2023-03-14T08:02:51;12.90;99.90
4293;DHT22;2160;51.172;6.808;2023-03-14T08:05:18;13.30;99.90
4293;DHT22;2160;51.172;6.808;2023-03-14T08:07:45;13.20;99.90
4293;DHT22;2160;51.172;6.808;2023-03-14T08:10:12;13.20;99.90
4293;DHT22;2160;51.172;6.808;2023-03-14T08:12:46;13.20;99.90
4293;DHT22;2160;51.172;6.808;2023-03-14T08:15:13;13.30;99.90
4293;DHT22;2160;51.172;6.808;2023-03-14T08:17:41;13.20;99.90
4293;DHT22;2160;51.172;6.808;2023-03-14T08:20:09;13.40;99.90
4293;DHT22;2160;51.172;6.808;2023-03-14T08:22:38;13.40;99.90
4293;DHT22;2160;51.172;6.808;2023-03-14T08:25:06;13.40;99.90
4293;DHT22;2160;51.172;6.808;2023-03-14T08:27:34;13.40;99.90
4293;DHT22;2160;51.172;6.808;2023-03-14T08:30:04;13.50;99.90
4293;DHT22;2160;51.172;6.808;2023-03-14T08:32:31;13.50;99.90
4293;DHT22;2160;51.172;6.808;2023-03-14T08:35:00;13.60;99.90
4293;DHT22;2160;51.172;6.808;2023-03-14T08:37:27;13.60;99.90
4293;DHT22;2160;51.172;6.808;2023-03-14T08:39:54;13.60;99.90
4293;DHT22;2160;51.172;6.808;2023-03-14T08:42:39;13.70;99.90
4293;DHT22;2160;51.172;6.808;2023-03-14T08:45:07;13.70;99.90
4293;DHT22;2160;51.172;6.808;2023-03-14T08:47:34;13.60;99.90
4293;DHT22;2160;51.172;6.808;2023-03-14T08:50:03;13.50;99.90
4293;DHT22;2160;51.172;6.808;2023-03-14T08:52:30;13.50;99.90
4293;DHT22;2160;51.172;6.808;2023-03-14T08:54:57;13.60;99.90
4293;DHT22;2160;51.172;6.808;2023-03-14T08:57:24;13.50;99.90
4293;DHT22;2160;51.172;6.808;2023-03-14T08:59:53;13.60;99.90
4293;DHT22;2160;51.172;6.808;2023-03-14T09:02:20;13.70;99.90
4293;DHT22;2160;51.172;6.808;2023-03-14T09:04:47;13.60;99.90
4293;DHT22;2160;51.172;6.808;2023-03-14T09:07:17;13.40;99.90
4293;DHT22;2160;51.172;6.808;2023-03-14T09:09:44;13.30;99.90
4293;DHT22;2160;51.172;6.808;2023-03-14T09:12:11;13.30;99.90
4293;DHT22;2160;51.172;6.808;2023-03-14T09:14:38;13.20;99.90
4293;DHT22;2160;51.172;6.808;2023-03-14T09:17:05;13.20;99.90
4293;DHT22;2160;51.172;6.808;2023-03-14T09:19:33;13.20;99.90
4293;DHT22;2160;51.172;6.808;2023-03-14T09:22:00;13.30;99.90
4293;DHT22;2160;51.172;6.808;2023-03-14T09:24:29;13.30;99.90
4293;DHT22;2160;51.172;6.808;2023-03-14T09:26:56;13.10;99.90
4293;DHT22;2160;51.172;6.808;2023-03-14T09:29:23;12.50;99.90
4293;DHT22;2160;51.172;6.808;2023-03-14T09:31:51;11.50;99.90
4293;DHT22;2160;51.172;6.808;2023-03-14T09:34:18;11.10;99.90
4293;DHT22;2160;51.172;6.808;2023-03-14T09:36:45;11.10;99.90
4293;DHT22;2160;51.172;6.808;2023-03-14T09:39:12;10.90;99.90
4293;DHT22;2160;51.172;6.808;2023-03-14T09:41:44;10.90;99.90
4293;DHT22;2160;51.172;6.808;2023-03-14T09:44:14;10.60;99.90
4293;DHT22;2160;51.172;6.808;2023-03-14T09:46:45;10.30;99.90
4293;DHT22;2160;51.172;6.808;2023-03-14T09:49:19;10.30;99.90
4293;DHT22;2160;51.172;6.808;2023-03-14T09:51:49;10.20;99.90
4293;DHT22;2160;51.172;6.808;2023-03-14T09:54:28;10.10;99.90
4293;DHT22;2160;51.172;6.808;2023-03-14T09:56:58;10.10;99.90
4293;DHT22;2160;51.172;6.808;2023-03-14T09:59:27;10.20;99.90
4293;DHT22;2160;51.172;6.808;2023-03-14T10:01:57;10.30;99.90
4293;DHT22;2160;51.172;6.808;2023-03-14T10:04:25;10.40;99.90
4293;DHT22;2160;51.172;6.808;2023-03-14T10:06:52;10.60;99.90
4293;DHT22;2160;51.172;6.808;2023-03-14T10:09:22;10.70;99.90
4293;DHT22;2160;51.172;6.808;2023-03-14T10:11:53;10.90;99.90
4293;DHT22;2160;51.172;6.808;2023-03-14T10:14:32;10.70;99.90
4293;DHT22;2160;51.172;6.808;2023-03-14T10:17:08;10.60;99.90
4293;DHT22;2160;51.172;6.808;2023-03-14T10:19:35;10.30;99.90
4293;DHT22;2160;51.172;6.808;2023-03-14T10:22:03;10.30;99.90
4293;DHT22;2160;51.172;6.808;2023-03-14T10:24:32;10.30;99.90
4293;DHT22;2160;51.172;6.808;2023-03-14T10:27:01;10.20;99.90
4293;DHT22;2160;51.172;6.808;2023-03-14T10:29:30;10.40;99.90
4293;DHT22;2160;51.172;6.808;2023-03-14T10:32:00;10.40;99.90
4293;DHT22;2160;51.172;6.808;2023-03-14T10:34:35;10.50;99.90
4293;DHT22;2160;51.172;6.808;2023-03-14T10:37:06;10.30;99.90
4293;DHT22;2160;51.172;6.808;2023-03-14T10:39:40;10.60;99.90
4293;DHT22;2160;51.172;6.808;2023-03-14T10:42:16;10.20;99.90
4293;DHT22;2160;51.172;6.808;2023-03-14T10:44:49;10.40;99.90
4293;DHT22;2160;51.172;6.808;2023-03-14T10:47:20;10.20;99.90
4293;DHT22;2160;51.172;6.808;2023-03-14T10:49:49;10.00;99.90
4293;DHT22;2160;51.172;6.808;2023-03-14T10:52:21;9.70;99.90
4293;DHT22;2160;51.172;6.808;2023-03-14T10:54:54;9.80;99.90
4293;DHT22;2160;51.172;6.808;2023-03-14T10:57:21;9.90;99.90
4293;DHT22;2160;51.172;6.808;2023-03-14T10:59:51;9.40;99.90
4293;DHT22;2160;51.172;6.808;2023-03-14T11:02:34;9.20;99.90
4293;DHT22;2160;51.172;6.808;2023-03-14T11:05:15;9.20;99.90
4293;DHT22;2160;51.172;6.808;2023-03-14T11:07:45;9.20;99.90
4293;DHT22;2160;51.172;6.808;2023-03-14T11:10:19;9.20;99.90
4293;DHT22;2160;51.172;6.808;2023-03-14T11:12:55;9.10;99.90
4293;DHT22;2160;51.172;6.808;2023-03-14T11:15:32;9.20;99.90
4293;DHT22;2160;51.172;6.808;2023-03-14T11:18:18;9.40;99.90
4293;DHT22;2160;51.172;6.808;2023-03-14T11:20:52;9.50;99.90
4293;DHT22;2160;51.172;6.808;2023-03-14T11:23:22;9.60;99.90
4293;DHT22;2160;51.172;6.808;2023-03-14T11:25:56;9.70;99.90
4293;DHT22;2160;51.172;6.808;2023-03-14T11:28:32;9.90;99.90
4293;DHT22;2160;51.172;6.808;2023-03-14T11:31:08;9.90;99.90
4293;DHT22;2160;51.172;6.808;2023-03-14T11:33:43;10.00;99.90
4293;DHT22;2160;51.172;6.808;2023-03-14T11:36:16;10.10;99.90
4293;DHT22;2160;51.172;6.808;2023-03-14T11:38:48;10.00;99.90
4293;DHT22;2160;51.172;6.808;2023-03-14T11:41:18;9.90;99.90
4293;DHT22;2160;51.172;6.808;2023-03-14T11:43:48;9.80;99.90
4293;DHT22;2160;51.172;6.808;2023-03-14T11:46:20;9.90;99.90
4293;DHT22;2160;51.172;6.808;2023-03-14T11:48:58;9.90;99.90
4293;DHT22;2160;51.172;6.808;2023-03-14T11:51:29;9.90;99.90
4293;DHT22;2160;51.172;6.808;2023-03-14T11:54:04;9.80;99.90
4293;DHT22;2160;51.172;6.808;2023-03-14T11:56:37;9.90;99.90
4293;DHT22;2160;51.172;6.808;2023-03-14T11:59:11;9.80;99.90
4293;DHT22;2160;51.172;6.808;2023-03-14T12:01:53;9.80;99.90
4293;DHT22;2160;51.172;6.808;2023-03-14T12:04:34;9.80;99.90
4293;DHT22;2160;51.172;6.808;2023-03-14T12:07:12;9.70;99.90
4293;DHT22;2160;51.172;6.808;2023-03-14T12:09:41;9.80;99.90
4293;DHT22;2160;51.172;6.808;2023-03-14T12:12:13;10.00;99.90
4293;DHT22;2160;51.172;6.808;2023-03-14T12:14:45;9.90;99.90
4293;DHT22;2160;51.172;6.808;2023-03-14T12:17:22;9.70;99.90
4293;DHT22;2160;51.172;6.808;2023-03-14T12:20:01;9.50;99.90
4293;DHT22;2160;51.172;6.808;2023-03-14T12:22:34;9.50;99.90
4293;DHT22;2160;51.172;6.808;2023-03-14T12:25:13;9.60;99.90
4293;DHT22;2160;51.172;6.808;2023-03-14T12:27:44;9.60;99.90
4293;DHT22;2160;51.172;6.808;2023-03-14T12:30:24;9.60;99.90
4293;DHT22;2160;51.172;6.808;2023-03-14T12:33:29;9.50;99.90
4293;DHT22;2160;51.172;6.808;2023-03-14T12:36:04;9.50;99.90
4293;DHT22;2160;51.172;6.808;2023-03-14T12:38:57;9.70;99.90
4293;DHT22;2160;51.172;6.808;2023-03-14T12:41:29;9.90;99.90
4293;DHT22;2160;51.172;6.808;2023-03-14T12:47:41;10.20;99.90
4293;DHT22;2160;51.172;6.808;2023-03-14T12:50:19;10.20;99.90
4293;DHT22;2160;51.172;6.808;2023-03-14T12:52:59;10.30;99.90
4293;DHT22;2160;51.172;6.808;2023-03-14T12:55:33;10.40;99.90
4293;DHT22;2160;51.172;6.808;2023-03-14T12:58:10;10.40;99.90
4293;DHT22;2160;51.172;6.808;2023-03-14T13:00:40;10.20;99.90
4293;DHT22;2160;51.172;6.808;2023-03-14T13:03:17;10.20;99.90
4293;DHT22;2160;51.172;6.808;2023-03-14T13:05:57;10.10;99.90
4293;DHT22;2160;51.172;6.808;2023-03-14T13:08:36;10.10;99.90
4293;DHT22;2160;51.172;6.808;2023-03-14T13:11:07;9.90;99.90
4293;DHT22;2160;51.172;6.808;2023-03-14T13:13:37;9.90;99.90
4293;DHT22;2160;51.172;6.808;2023-03-14T13:16:15;9.70;99.90
4293;DHT22;2160;51.172;6.808;2023-03-14T13:18:44;9.70;99.90
4293;DHT22;2160;51.172;6.808;2023-03-14T13:21:16;9.70;99.90
4293;DHT22;2160;51.172;6.808;2023-03-14T13:23:57;9.80;99.90
4293;DHT22;2160;51.172;6.808;2023-03-14T13:26:31;9.80;99.90
4293;DHT22;2160;51.172;6.808;2023-03-14T13:28:59;9.70;99.90
4293;DHT22;2160;51.172;6.808;2023-03-14T13:31:26;9.60;99.90
4293;DHT22;2160;51.172;6.808;2023-03-14T13:34:01;10.00;99.90
4293;DHT22;2160;51.172;6.808;2023-03-14T13:36:30;10.00;99.90
4293;DHT22;2160;51.172;6.808;2023-03-14T13:38:59;10.00;99.90
4293;DHT22;2160;51.172;6.808;2023-03-14T13:41:27;10.00;99.90
4293;DHT22;2160;51.172;6.808;2023-03-14T13:44:01;10.10;99.90
4293;DHT22;2160;51.172;6.808;2023-03-14T13:46:29;10.30;99.90
4293;DHT22;2160;51.172;6.808;2023-03-14T13:49:00;10.50;99.90
4293;DHT22;2160;51.172;6.808;2023-03-14T13:51:29;10.60;99.90
4293;DHT22;2160;51.172;6.808;2023-03-14T13:53:58;10.90;99.90
4293;DHT22;2160;51.172;6.808;2023-03-14T13:56:28;11.00;99.90
4293;DHT22;2160;51.172;6.808;2023-03-14T13:58:55;11.10;99.90
4293;DHT22;2160;51.172;6.808;2023-03-14T14:01:24;11.30;99.90
4293;DHT22;2160;51.172;6.808;2023-03-14T14:03:53;11.40;99.90
4293;DHT22;2160;51.172;6.808;2023-03-14T14:06:31;11.50;99.90
4293;DHT22;2160;51.172;6.808;2023-03-14T14:09:00;11.30;99.90
4293;DHT22;2160;51.172;6.808;2023-03-14T14:11:38;11.50;99.90
4293;DHT22;2160;51.172;6.808;2023-03-14T14:14:11;11.50;99.90
4293;DHT22;2160;51.172;6.808;2023-03-14T14:16:39;11.30;99.90
4293;DHT22;2160;51.172;6.808;2023-03-14T14:19:06;11.30;99.90
4293;DHT22;2160;51.172;6.808;2023-03-14T14:21:35;11.30;99.90
4293;DHT22;2160;51.172;6.808;2023-03-14T14:24:03;11.40;99.90
4293;DHT22;2160;51.172;6.808;2023-03-14T14:26:32;11.40;99.90
4293;DHT22;2160;51.172;6.808;2023-03-14T14:32:03;11.40;99.90
4293;DHT22;2160;51.172;6.808;2023-03-14T14:34:39;11.30;99.90
4293;DHT22;2160;51.172;6.808;2023-03-14T14:37:19;11.10;99.90
4293;DHT22;2160;51.172;6.808;2023-03-14T14:39:47;11.00;99.90
4293;DHT22;2160;51.172;6.808;2023-03-14T14:42:15;11.10;99.90
4293;DHT22;2160;51.172;6.808;2023-03-14T14:44:43;11.00;99.90
4293;DHT22;2160;51.172;6.808;2023-03-14T14:47:13;11.00;99.90
4293;DHT22;2160;51.172;6.808;2023-03-14T14:49:47;10.80;99.90
4293;DHT22;2160;51.172;6.808;2023-03-14T14:52:16;10.60;99.90
4293;DHT22;2160;51.172;6.808;2023-03-14T14:54:46;10.50;99.90
4293;DHT22;2160;51.172;6.808;2023-03-14T14:57:18;10.30;99.90
4293;DHT22;2160;51.172;6.808;2023-03-14T14:59:48;10.50;99.90
4293;DHT22;2160;51.172;6.808;2023-03-14T15:02:29;10.20;99.90
4293;DHT22;2160;51.172;6.808;2023-03-14T15:04:56;10.20;99.90
4293;DHT22;2160;51.172;6.808;2023-03-14T15:07:23;10.30;99.90
4293;DHT22;2160;51.172;6.808;2023-03-14T15:09:51;10.40;99.90
4293;DHT22;2160;51.172;6.808;2023-03-14T15:12:18;10.60;99.90
4293;DHT22;2160;51.172;6.808;2023-03-14T15:14:46;10.70;99.90
4293;DHT22;2160;51.172;6.808;2023-03-14T15:17:13;10.50;99.90
4293;DHT22;2160;51.172;6.808;2023-03-14T15:19:40;10.40;99.90
4293;DHT22;2160;51.172;6.808;2023-03-14T15:22:11;10.30;98.90
4293;DHT22;2160;51.172;6.808;2023-03-14T15:24:39;10.10;99.90
4293;DHT22;2160;51.172;6.808;2023-03-14T15:27:13;10.30;99.90
4293;DHT22;2160;51.172;6.808;2023-03-14T15:29:41;10.40;99.70
4293;DHT22;2160;51.172;6.808;2023-03-14T15:32:11;10.40;99.00
4293;DHT22;2160;51.172;6.808;2023-03-14T15:34:38;10.60;98.30
4293;DHT22;2160;51.172;6.808;2023-03-14T15:37:10;10.30;96.10
4293;DHT22;2160;51.172;6.808;2023-03-14T15:39:38;10.20;98.30
4293;DHT22;2160;51.172;6.808;2023-03-14T15:42:05;10.20;96.10
4293;DHT22;2160;51.172;6.808;2023-03-14T15:44:34;10.00;98.10
4293;DHT22;2160;51.172;6.808;2023-03-14T15:47:01;10.00;97.40
4293;DHT22;2160;51.172;6.808;2023-03-14T15:49:28;10.10;95.90
4293;DHT22;2160;51.172;6.808;2023-03-14T15:51:55;10.20;96.30
4293;DHT22;2160;51.172;6.808;2023-03-14T15:54:23;10.30;95.30
4293;DHT22;2160;51.172;6.808;2023-03-14T15:56:53;10.40;91.50
4293;DHT22;2160;51.172;6.808;2023-03-14T15:59:20;10.50;94.10
4293;DHT22;2160;51.172;6.808;2023-03-14T16:01:49;10.60;94.50
4293;DHT22;2160;51.172;6.808;2023-03-14T16:04:16;10.70;94.00
4293;DHT22;2160;51.172;6.808;2023-03-14T16:06:43;10.80;91.40
4293;DHT22;2160;51.172;6.808;2023-03-14T16:09:11;10.70;93.10
4293;DHT22;2160;51.172;6.808;2023-03-14T16:11:40;10.40;94.50
4293;DHT22;2160;51.172;6.808;2023-03-14T16:14:08;10.40;94.80
4293;DHT22;2160;51.172;6.808;2023-03-14T16:16:35;10.30;94.60
4293;DHT22;2160;51.172;6.808;2023-03-14T16:19:06;10.10;94.30
4293;DHT22;2160;51.172;6.808;2023-03-14T16:21:33;10.30;93.60
4293;DHT22;2160;51.172;6.808;2023-03-14T16:24:00;10.20;92.70
4293;DHT22;2160;51.172;6.808;2023-03-14T16:26:27;10.40;92.80
4293;DHT22;2160;51.172;6.808;2023-03-14T16:28:55;10.10;91.50
4293;DHT22;2160;51.172;6.808;2023-03-14T16:31:22;9.80;90.60
4293;DHT22;2160;51.172;6.808;2023-03-14T16:33:50;9.80;92.80
4293;DHT22;2160;51.172;6.808;2023-03-14T16:36:19;9.90;93.00
4293;DHT22;2160;51.172;6.808;2023-03-14T16:38:45;9.80;92.50
4293;DHT22;2160;51.172;6.808;2023-03-14T16:41:15;9.80;91.10
4293;DHT22;2160;51.172;6.808;2023-03-14T16:43:42;9.90;90.50
4293;DHT22;2160;51.172;6.808;2023-03-14T16:46:12;9.80;89.50
4293;DHT22;2160;51.172;6.808;2023-03-14T16:48:41;9.90;90.10
4293;DHT22;2160;51.172;6.808;2023-03-14T16:51:08;10.00;89.10
4293;DHT22;2160;51.172;6.808;2023-03-14T16:53:36;10.10;92.00
4293;DHT22;2160;51.172;6.808;2023-03-14T16:56:04;10.20;90.50
4293;DHT22;2160;51.172;6.808;2023-03-14T16:58:31;10.10;91.20
4293;DHT22;2160;51.172;6.808;2023-03-14T17:00:58;10.00;92.10
4293;DHT22;2160;51.172;6.808;2023-03-14T17:03:34;10.00;92.40
4293;DHT22;2160;51.172;6.808;2023-03-14T17:06:01;10.00;89.30
4293;DHT22;2160;51.172;6.808;2023-03-14T17:08:29;9.90;90.00
4293;DHT22;2160;51.172;6.808;2023-03-14T17:10:58;9.80;91.30
4293;DHT22;2160;51.172;6.808;2023-03-14T17:13:24;9.80;90.80
4293;DHT22;2160;51.172;6.808;2023-03-14T17:15:53;9.80;89.60
4293;DHT22;2160;51.172;6.808;2023-03-14T17:18:21;9.90;88.30
4293;DHT22;2160;51.172;6.808;2023-03-14T17:20:49;10.00;87.00
4293;DHT22;2160;51.172;6.808;2023-03-14T17:23:16;9.80;88.30
4293;DHT22;2160;51.172;6.808;2023-03-14T17:25:45;10.00;86.30
4293;DHT22;2160;51.172;6.808;2023-03-14T17:28:14;10.00;87.10
4293;DHT22;2160;51.172;6.808;2023-03-14T17:30:41;9.90;87.50
4293;DHT22;2160;51.172;6.808;2023-03-14T17:33:08;9.90;89.20
4293;DHT22;2160;51.172;6.808;2023-03-14T17:35:35;9.70;90.50
4293;DHT22;2160;51.172;6.808;2023-03-14T17:38:02;9.70;91.80
4293;DHT22;2160;51.172;6.808;2023-03-14T17:40:29;9.70;91.90
4293;DHT22;2160;51.172;6.808;2023-03-14T17:42:56;9.70;92.60
4293;DHT22;2160;51.172;6.808;2023-03-14T17:45:24;9.50;92.30
4293;DHT22;2160;51.172;6.808;2023-03-14T17:47:51;9.60;93.40
4293;DHT22;2160;51.172;6.808;2023-03-14T17:50:19;9.70;93.80
4293;DHT22;2160;51.172;6.808;2023-03-14T17:52:45;9.60;92.60
4293;DHT22;2160;51.172;6.808;2023-03-14T17:55:13;9.80;91.10
4293;DHT22;2160;51.172;6.808;2023-03-14T17:57:40;9.50;91.40
4293;DHT22;2160;51.172;6.808;2023-03-14T18:00:10;9.70;89.70
4293;DHT22;2160;51.172;6.808;2023-03-14T18:02:39;9.60;91.10
4293;DHT22;2160;51.172;6.808;2023-03-14T18:05:06;9.70;88.70
4293;DHT22;2160;51.172;6.808;2023-03-14T18:07:34;9.70;89.10
4293;DHT22;2160;51.172;6.808;2023-03-14T18:10:01;9.70;90.10
4293;DHT22;2160;51.172;6.808;2023-03-14T18:12:28;9.60;90.60
4293;DHT22;2160;51.172;6.808;2023-03-14T18:14:55;9.80;90.90
4293;DHT22;2160;51.172;6.808;2023-03-14T18:17:22;9.70;91.80
4293;DHT22;2160;51.172;6.808;2023-03-14T18:19:50;9.40;92.10
4293;DHT22;2160;51.172;6.808;2023-03-14T18:22:18;9.10;94.20
4293;DHT22;2160;51.172;6.808;2023-03-14T18:24:46;9.10;93.80
4293;DHT22;2160;51.172;6.808;2023-03-14T18:27:13;9.10;92.90
4293;DHT22;2160;51.172;6.808;2023-03-14T18:29:40;8.90;92.90
4293;DHT22;2160;51.172;6.808;2023-03-14T18:32:08;8.70;92.40
4293;DHT22;2160;51.172;6.808;2023-03-14T18:34:35;8.80;91.70
4293;DHT22;2160;51.172;6.808;2023-03-14T18:37:04;8.80;92.70
4293;DHT22;2160;51.172;6.808;2023-03-14T18:39:31;8.90;94.00
4293;DHT22;2160;51.172;6.808;2023-03-14T18:41:59;9.20;93.10
4293;DHT22;2160;51.172;6.808;2023-03-14T18:44:26;9.10;93.30
4293;DHT22;2160;51.172;6.808;2023-03-14T18:46:53;8.90;93.90
4293;DHT22;2160;51.172;6.808;2023-03-14T18:49:20;8.90;93.60
4293;DHT22;2160;51.172;6.808;2023-03-14T18:51:47;8.90;94.00
4293;DHT22;2160;51.172;6.808;2023-03-14T18:54:17;9.00;94.20
4293;DHT22;2160;51.172;6.808;2023-03-14T18:56:44;8.70;94.70
4293;DHT22;2160;51.172;6.808;2023-03-14T18:59:11;8.40;95.00
4293;DHT22;2160;51.172;6.808;2023-03-14T19:01:38;8.80;96.90
4293;DHT22;2160;51.172;6.808;2023-03-14T19:04:05;8.60;96.40
4293;DHT22;2160;51.172;6.808;2023-03-14T19:06:33;8.60;95.90
4293;DHT22;2160;51.172;6.808;2023-03-14T19:09:01;8.30;96.50
4293;DHT22;2160;51.172;6.808;2023-03-14T19:11:31;8.30;95.90
4293;DHT22;2160;51.172;6.808;2023-03-14T19:13:58;8.40;97.10
4293;DHT22;2160;51.172;6.808;2023-03-14T19:16:25;8.10;96.10
4293;DHT22;2160;51.172;6.808;2023-03-14T19:18:52;8.30;97.30
4293;DHT22;2160;51.172;6.808;2023-03-14T19:21:28;8.20;95.50
4293;DHT22;2160;51.172;6.808;2023-03-14T19:23:55;8.20;96.20
4293;DHT22;2160;51.172;6.808;2023-03-14T19:26:22;8.40;97.60
4293;DHT22;2160;51.172;6.808;2023-03-14T19:28:51;8.20;96.80
4293;DHT22;2160;51.172;6.808;2023-03-14T19:31:18;8.20;98.30
4293;DHT22;2160;51.172;6.808;2023-03-14T19:33:46;8.30;96.70
4293;DHT22;2160;51.172;6.808;2023-03-14T19:36:20;8.40;96.40
4293;DHT22;2160;51.172;6.808;2023-03-14T19:38:48;8.60;96.50
4293;DHT22;2160;51.172;6.808;2023-03-14T19:41:15;8.50;95.70
4293;DHT22;2160;51.172;6.808;2023-03-14T19:43:42;8.10;96.70
4293;DHT22;2160;51.172;6.808;2023-03-14T19:46:11;8.20;97.00
4293;DHT22;2160;51.172;6.808;2023-03-14T19:48:40;8.20;97.60
4293;DHT22;2160;51.172;6.808;2023-03-14T19:51:10;8.50;97.10
4293;DHT22;2160;51.172;6.808;2023-03-14T19:53:37;8.30;96.40
4293;DHT22;2160;51.172;6.808;2023-03-14T19:56:05;8.10;97.60
4293;DHT22;2160;51.172;6.808;2023-03-14T19:58:32;8.00;98.00
4293;DHT22;2160;51.172;6.808;2023-03-14T20:00:59;7.90;97.90
4293;DHT22;2160;51.172;6.808;2023-03-14T20:03:28;7.90;98.50
4293;DHT22;2160;51.172;6.808;2023-03-14T20:05:56;7.80;97.00
4293;DHT22;2160;51.172;6.808;2023-03-14T20:08:23;7.90;99.70
4293;DHT22;2160;51.172;6.808;2023-03-14T20:10:50;8.00;99.00
4293;DHT22;2160;51.172;6.808;2023-03-14T20:13:17;8.10;97.70
4293;DHT22;2160;51.172;6.808;2023-03-14T20:15:44;8.30;98.20
4293;DHT22;2160;51.172;6.808;2023-03-14T20:18:11;8.30;97.80
4293;DHT22;2160;51.172;6.808;2023-03-14T20:20:40;8.20;98.20
4293;DHT22;2160;51.172;6.808;2023-03-14T20:23:07;8.10;98.00
4293;DHT22;2160;51.172;6.808;2023-03-14T20:25:34;8.00;99.20
4293;DHT22;2160;51.172;6.808;2023-03-14T20:28:02;8.00;99.00
4293;DHT22;2160;51.172;6.808;2023-03-14T20:30:30;7.90;99.20
4293;DHT22;2160;51.172;6.808;2023-03-14T20:32:57;7.90;99.60
4293;DHT22;2160;51.172;6.808;2023-03-14T20:35:24;7.90;99.60
4293;DHT22;2160;51.172;6.808;2023-03-14T20:37:54;8.00;99.90
4293;DHT22;2160;51.172;6.808;2023-03-14T20:40:23;8.00;99.10
4293;DHT22;2160;51.172;6.808;2023-03-14T20:42:53;8.00;98.70
4293;DHT22;2160;51.172;6.808;2023-03-14T20:45:21;8.00;99.40
4293;DHT22;2160;51.172;6.808;2023-03-14T20:47:49;8.00;99.30
4293;DHT22;2160;51.172;6.808;2023-03-14T20:50:16;8.00;98.90
4293;DHT22;2160;51.172;6.808;2023-03-14T20:52:44;8.10;99.30
4293;DHT22;2160;51.172;6.808;2023-03-14T20:55:12;8.20;99.90
4293;DHT22;2160;51.172;6.808;2023-03-14T20:57:39;8.30;99.70
4293;DHT22;2160;51.172;6.808;2023-03-14T21:00:10;8.30;99.90
4293;DHT22;2160;51.172;6.808;2023-03-14T21:02:38;8.40;99.50
4293;DHT22;2160;51.172;6.808;2023-03-14T21:05:07;8.40;99.90
4293;DHT22;2160;51.172;6.808;2023-03-14T21:07:36;8.50;99.90
4293;DHT22;2160;51.172;6.808;2023-03-14T21:10:08;8.50;99.40
4293;DHT22;2160;51.172;6.808;2023-03-14T21:12:37;8.40;98.30
4293;DHT22;2160;51.172;6.808;2023-03-14T21:15:05;8.30;98.80
4293;DHT22;2160;51.172;6.808;2023-03-14T21:17:33;8.20;99.10
4293;DHT22;2160;51.172;6.808;2023-03-14T21:20:00;8.30;99.60
4293;DHT22;2160;51.172;6.808;2023-03-14T21:22:28;8.40;99.00
4293;DHT22;2160;51.172;6.808;2023-03-14T21:24:56;8.30;99.90
4293;DHT22;2160;51.172;6.808;2023-03-14T21:27:24;8.30;99.30
4293;DHT22;2160;51.172;6.808;2023-03-14T21:29:52;8.30;99.80
4293;DHT22;2160;51.172;6.808;2023-03-14T21:32:19;8.30;99.80
4293;DHT22;2160;51.172;6.808;2023-03-14T21:34:46;8.20;99.70
4293;DHT22;2160;51.172;6.808;2023-03-14T21:37:14;8.30;99.90